sensor_id;sensor_type;location;lat;lon;timestamp;pressure;altitude;pressure_sealevel;temperature;humidity
6038;BME280;3047;42.600;23.470;2022-09-28T00:00:18;92124.31;;;14.27;100.00
6038;BME280;3047;42.600;23.470;2022-09-28T00:02:45;92120.38;;;14.22;100.00
6038;BME280;3047;42.600;23.470;2022-09-28T00:05:12;92112.88;;;14.20;100.00
6038;BME280;3047;42.600;23.470;2022-09-28T00:07:39;92114.50;;;14.21;100.00
6038;BME280;3047;42.600;23.470;2022-09-28T00:10:08;92104.53;;;14.18;100.00
6038;BME280;3047;42.600;23.470;2022-09-28T00:12:35;92103.53;;;14.06;100.00
6038;BME280;3047;42.600;23.470;2022-09-28T00:15:02;92099.09;;;14.10;100.00
6038;BME280;3047;42.600;23.470;2022-09-28T00:17:29;92077.09;;;13.95;100.00
6038;BME280;3047;42.600;23.470;2022-09-28T00:19:55;92084.56;;;13.98;100.00
6038;BME280;3047;42.600;23.470;2022-09-28T00:22:22;92096.88;;;14.04;100.00
6038;BME280;3047;42.600;23.470;2022-09-28T00:24:49;92097.88;;;14.01;100.00
6038;BME280;3047;42.600;23.470;2022-09-28T00:27:17;92086.91;;;14.01;100.00
6038;BME280;3047;42.600;23.470;2022-09-28T00:29:43;92083.84;;;14.10;100.00
6038;BME280;3047;42.600;23.470;2022-09-28T00:32:11;92085.28;;;14.00;100.00
6038;BME280;3047;42.600;23.470;2022-09-28T00:34:41;92035.44;;;13.69;100.00
6038;BME280;3047;42.600;23.470;2022-09-28T00:37:11;92082.56;;;14.03;100.00
6038;BME280;3047;42.600;23.470;2022-09-28T00:39:38;92087.28;;;14.09;100.00
6038;BME280;3047;42.600;23.470;2022-09-28T00:42:20;92084.72;;;14.09;100.00
6038;BME280;3047;42.600;23.470;2022-09-28T00:44:48;92088.72;;;14.13;100.00
6038;BME280;3047;42.600;23.470;2022-09-28T00:47:37;92088.09;;;14.09;100.00
6038;BME280;3047;42.600;23.470;2022-09-28T00:50:09;92068.78;;;14.07;100.00
6038;BME280;3047;42.600;23.470;2022-09-28T00:52:40;92082.03;;;14.12;100.00
6038;BME280;3047;42.600;23.470;2022-09-28T00:55:10;92086.56;;;14.07;100.00
6038;BME280;3047;42.600;23.470;2022-09-28T00:57:43;92080.94;;;14.02;100.00
6038;BME280;3047;42.600;23.470;2022-09-28T01:00:13;92083.16;;;13.92;100.00
6038;BME280;3047;42.600;23.470;2022-09-28T01:02:40;92079.66;;;13.95;100.00
6038;BME280;3047;42.600;23.470;2022-09-28T01:05:08;92071.13;;;13.96;100.00
6038;BME280;3047;42.600;23.470;2022-09-28T01:07:36;92059.50;;;13.92;100.00
6038;BME280;3047;42.600;23.470;2022-09-28T01:10:04;92084.19;;;14.04;100.00
6038;BME280;3047;42.600;23.470;2022-09-28T01:12:31;92084.28;;;14.02;100.00
6038;BME280;3047;42.600;23.470;2022-09-28T01:14:59;92081.09;;;14.13;100.00
6038;BME280;3047;42.600;23.470;2022-09-28T01:17:31;92093.09;;;14.25;100.00
6038;BME280;3047;42.600;23.470;2022-09-28T01:20:27;92087.66;;;14.31;100.00
6038;BME280;3047;42.600;23.470;2022-09-28T01:23:14;92092.00;;;14.29;100.00
6038;BME280;3047;42.600;23.470;2022-09-28T01:25:52;92089.09;;;14.21;100.00
6038;BME280;3047;42.600;23.470;2022-09-28T01:28:23;92085.09;;;14.17;100.00
6038;BME280;3047;42.600;23.470;2022-09-28T01:30:57;92089.75;;;14.25;100.00
6038;BME280;3047;42.600;23.470;2022-09-28T01:33:32;92107.25;;;14.29;100.00
6038;BME280;3047;42.600;23.470;2022-09-28T01:36:06;92092.75;;;14.31;100.00
6038;BME280;3047;42.600;23.470;2022-09-28T01:38:38;92101.34;;;14.29;100.00
6038;BME280;3047;42.600;23.470;2022-09-28T01:41:08;92089.75;;;14.25;100.00
6038;BME280;3047;42.600;23.470;2022-09-28T01:43:38;92091.84;;;14.32;100.00
6038;BME280;3047;42.600;23.470;2022-09-28T01:46:10;92078.13;;;14.21;100.00
6038;BME280;3047;42.600;23.470;2022-09-28T01:48:42;92088.75;;;14.27;100.00
6038;BME280;3047;42.600;23.470;2022-09-28T01:51:16;92098.47;;;14.35;100.00
6038;BME280;3047;42.600;23.470;2022-09-28T01:53:47;92099.75;;;14.42;100.00
6038;BME280;3047;42.600;23.470;2022-09-28T01:56:17;92099.81;;;14.41;100.00
6038;BME280;3047;42.600;23.470;2022-09-28T01:58:53;92102.81;;;14.47;100.00
6038;BME280;3047;42.600;23.470;2022-09-28T02:01:24;92107.09;;;14.47;100.00
6038;BME280;3047;42.600;23.470;2022-09-28T02:03:56;92104.09;;;14.40;100.00
6038;BME280;3047;42.600;23.470;2022-09-28T02:06:26;92115.47;;;14.49;100.00
6038;BME280;3047;42.600;23.470;2022-09-28T02:08:59;92126.78;;;14.43;100.00
6038;BME280;3047;42.600;23.470;2022-09-28T02:11:27;92115.16;;;14.39;100.00
6038;BME280;3047;42.600;23.470;2022-09-28T02:14:00;92107.50;;;14.25;100.00
6038;BME280;3047;42.600;23.470;2022-09-28T02:16:33;92118.97;;;14.32;100.00
6038;BME280;3047;42.600;23.470;2022-09-28T02:19:02;92126.47;;;14.33;100.00
6038;BME280;3047;42.600;23.470;2022-09-28T02:21:31;92114.06;;;14.29;100.00
6038;BME280;3047;42.600;23.470;2022-09-28T02:24:07;92119.19;;;13.99;100.00
6038;BME280;3047;42.600;23.470;2022-09-28T02:26:40;92116.28;;;14.05;100.00
6038;BME280;3047;42.600;23.470;2022-09-28T02:29:09;92123.19;;;14.17;100.00
6038;BME280;3047;42.600;23.470;2022-09-28T02:31:36;92107.31;;;14.14;100.00
6038;BME280;3047;42.600;23.470;2022-09-28T02:34:03;92107.41;;;14.12;100.00
6038;BME280;3047;42.600;23.470;2022-09-28T02:36:30;92116.47;;;14.02;100.00
6038;BME280;3047;42.600;23.470;2022-09-28T02:38:57;92110.50;;;14.03;100.00
6038;BME280;3047;42.600;23.470;2022-09-28T02:41:32;92111.75;;;13.96;100.00
6038;BME280;3047;42.600;23.470;2022-09-28T02:44:13;92122.28;;;14.04;100.00
6038;BME280;3047;42.600;23.470;2022-09-28T02:46:45;92100.97;;;14.06;100.00
6038;BME280;3047;42.600;23.470;2022-09-28T02:49:24;92106.66;;;13.96;100.00
6038;BME280;3047;42.600;23.470;2022-09-28T02:52:09;92108.94;;;14.00;100.00
6038;BME280;3047;42.600;23.470;2022-09-28T02:55:00;92090.34;;;14.00;100.00
6038;BME280;3047;42.600;23.470;2022-09-28T02:57:40;92110.09;;;13.95;100.00
6038;BME280;3047;42.600;23.470;2022-09-28T03:00:16;92094.34;;;14.04;100.00
6038;BME280;3047;42.600;23.470;2022-09-28T03:02:49;92088.19;;;13.94;100.00
6038;BME280;3047;42.600;23.470;2022-09-28T03:05:22;92099.63;;;14.15;100.00
6038;BME280;3047;42.600;23.470;2022-09-28T03:07:56;92108.97;;;14.29;100.00
6038;BME280;3047;42.600;23.470;2022-09-28T03:10:29;92093.03;;;14.27;100.00
6038;BME280;3047;42.600;23.470;2022-09-28T03:12:56;92119.22;;;14.42;100.00
6038;BME280;3047;42.600;23.470;2022-09-28T03:15:27;92126.03;;;14.41;100.00
6038;BME280;3047;42.600;23.470;2022-09-28T03:17:54;92130.69;;;14.34;100.00
6038;BME280;3047;42.600;23.470;2022-09-28T03:20:21;92113.41;;;14.25;100.00
6038;BME280;3047;42.600;23.470;2022-09-28T03:22:48;92127.03;;;14.24;100.00
6038;BME280;3047;42.600;23.470;2022-09-28T03:25:15;92140.81;;;14.20;100.00
6038;BME280;3047;42.600;23.470;2022-09-28T03:27:42;92141.34;;;14.11;100.00
6038;BME280;3047;42.600;23.470;2022-09-28T03:30:09;92114.19;;;13.67;100.00
6038;BME280;3047;42.600;23.470;2022-09-28T03:32:38;92142.88;;;13.83;100.00
6038;BME280;3047;42.600;23.470;2022-09-28T03:35:07;92138.38;;;13.89;100.00
6038;BME280;3047;42.600;23.470;2022-09-28T03:37:34;92135.53;;;13.79;100.00
6038;BME280;3047;42.600;23.470;2022-09-28T03:40:01;92132.03;;;13.81;100.00
6038;BME280;3047;42.600;23.470;2022-09-28T03:42:27;92141.25;;;13.82;100.00
6038;BME280;3047;42.600;23.470;2022-09-28T03:44:54;92146.22;;;13.70;100.00
6038;BME280;3047;42.600;23.470;2022-09-28T03:47:21;92129.41;;;13.67;100.00
6038;BME280;3047;42.600;23.470;2022-09-28T03:49:49;92142.00;;;13.69;100.00
6038;BME280;3047;42.600;23.470;2022-09-28T03:52:15;92145.88;;;13.60;100.00
6038;BME280;3047;42.600;23.470;2022-09-28T03:54:42;92143.28;;;13.62;100.00
6038;BME280;3047;42.600;23.470;2022-09-28T03:57:09;92148.66;;;13.55;100.00
6038;BME280;3047;42.600;23.470;2022-09-28T03:59:35;92151.44;;;13.67;100.00
6038;BME280;3047;42.600;23.470;2022-09-28T04:02:03;92107.84;;;13.44;100.00
6038;BME280;3047;42.600;23.470;2022-09-28T04:04:30;92141.78;;;13.73;100.00
6038;BME280;3047;42.600;23.470;2022-09-28T04:06:58;92147.97;;;13.83;100.00
6038;BME280;3047;42.600;23.470;2022-09-28T04:09:25;92141.69;;;13.75;100.00
6038;BME280;3047;42.600;23.470;2022-09-28T04:11:52;92131.44;;;13.76;100.00
6038;BME280;3047;42.600;23.470;2022-09-28T04:14:18;92125.59;;;13.60;100.00
6038;BME280;3047;42.600;23.470;2022-09-28T04:16:45;92113.81;;;13.59;100.00
6038;BME280;3047;42.600;23.470;2022-09-28T04:19:13;92127.28;;;13.75;100.00
6038;BME280;3047;42.600;23.470;2022-09-28T04:21:39;92140.81;;;13.60;100.00
6038;BME280;3047;42.600;23.470;2022-09-28T04:24:08;92140.38;;;13.68;100.00
6038;BME280;3047;42.600;23.470;2022-09-28T04:26:35;92112.34;;;13.55;100.00
6038;BME280;3047;42.600;23.470;2022-09-28T04:29:02;92134.63;;;13.80;100.00
6038;BME280;3047;42.600;23.470;2022-09-28T04:31:42;92129.09;;;13.73;100.00
6038;BME280;3047;42.600;23.470;2022-09-28T04:34:10;92123.91;;;13.75;100.00
6038;BME280;3047;42.600;23.470;2022-09-28T04:36:37;92121.22;;;13.78;100.00
6038;BME280;3047;42.600;23.470;2022-09-28T04:39:04;92118.84;;;13.75;100.00
6038;BME280;3047;42.600;23.470;2022-09-28T04:41:32;92113.66;;;13.76;100.00
6038;BME280;3047;42.600;23.470;2022-09-28T04:43:59;92113.59;;;13.78;100.00
6038;BME280;3047;42.600;23.470;2022-09-28T04:46:26;92110.00;;;13.82;100.00
6038;BME280;3047;42.600;23.470;2022-09-28T04:48:52;92136.78;;;14.02;100.00
6038;BME280;3047;42.600;23.470;2022-09-28T04:51:19;92133.06;;;14.07;100.00
6038;BME280;3047;42.600;23.470;2022-09-28T04:53:46;92147.22;;;14.12;100.00
6038;BME280;3047;42.600;23.470;2022-09-28T04:56:14;92142.06;;;14.13;100.00
6038;BME280;3047;42.600;23.470;2022-09-28T04:58:42;92127.72;;;14.12;100.00
6038;BME280;3047;42.600;23.470;2022-09-28T05:01:11;92137.44;;;14.20;100.00
6038;BME280;3047;42.600;23.470;2022-09-28T05:03:38;92141.28;;;14.27;100.00
6038;BME280;3047;42.600;23.470;2022-09-28T05:06:05;92140.25;;;14.29;100.00
6038;BME280;3047;42.600;23.470;2022-09-28T05:08:33;92141.00;;;14.31;100.00
6038;BME280;3047;42.600;23.470;2022-09-28T05:11:02;92131.50;;;14.35;100.00
6038;BME280;3047;42.600;23.470;2022-09-28T05:13:29;92136.13;;;14.43;100.00
6038;BME280;3047;42.600;23.470;2022-09-28T05:15:58;92127.75;;;14.41;100.00
6038;BME280;3047;42.600;23.470;2022-09-28T05:18:25;92138.06;;;14.53;100.00
6038;BME280;3047;42.600;23.470;2022-09-28T05:20:51;92142.88;;;14.58;100.00
6038;BME280;3047;42.600;23.470;2022-09-28T05:23:18;92147.44;;;14.67;100.00
6038;BME280;3047;42.600;23.470;2022-09-28T05:25:45;92124.19;;;14.59;100.00
6038;BME280;3047;42.600;23.470;2022-09-28T05:28:11;92159.84;;;14.72;100.00
6038;BME280;3047;42.600;23.470;2022-09-28T05:30:38;92161.66;;;14.84;100.00
6038;BME280;3047;42.600;23.470;2022-09-28T05:33:06;92164.28;;;14.82;100.00
6038;BME280;3047;42.600;23.470;2022-09-28T05:35:34;92156.31;;;14.89;100.00
6038;BME280;3047;42.600;23.470;2022-09-28T05:38:02;92155.84;;;14.96;100.00
6038;BME280;3047;42.600;23.470;2022-09-28T05:40:29;92152.50;;;14.96;100.00
6038;BME280;3047;42.600;23.470;2022-09-28T05:42:58;92156.09;;;15.06;100.00
6038;BME280;3047;42.600;23.470;2022-09-28T05:45:25;92153.03;;;15.01;100.00
6038;BME280;3047;42.600;23.470;2022-09-28T05:47:52;92143.84;;;14.98;100.00
6038;BME280;3047;42.600;23.470;2022-09-28T05:50:20;92163.19;;;15.15;100.00
6038;BME280;3047;42.600;23.470;2022-09-28T05:52:47;92162.72;;;15.23;100.00
6038;BME280;3047;42.600;23.470;2022-09-28T05:55:22;92174.25;;;15.28;100.00
6038;BME280;3047;42.600;23.470;2022-09-28T05:57:48;92163.91;;;15.31;100.00
6038;BME280;3047;42.600;23.470;2022-09-28T06:00:15;92159.22;;;15.38;100.00
6038;BME280;3047;42.600;23.470;2022-09-28T06:02:42;92160.97;;;15.38;100.00
6038;BME280;3047;42.600;23.470;2022-09-28T06:05:09;92160.16;;;15.37;100.00
6038;BME280;3047;42.600;23.470;2022-09-28T06:07:37;92158.94;;;15.43;100.00
6038;BME280;3047;42.600;23.470;2022-09-28T06:10:05;92159.63;;;15.59;100.00
6038;BME280;3047;42.600;23.470;2022-09-28T06:12:32;92169.19;;;15.55;100.00
6038;BME280;3047;42.600;23.470;2022-09-28T06:14:59;92161.16;;;15.62;100.00
6038;BME280;3047;42.600;23.470;2022-09-28T06:17:26;92166.97;;;15.78;100.00
6038;BME280;3047;42.600;23.470;2022-09-28T06:19:52;92173.94;;;15.89;100.00
6038;BME280;3047;42.600;23.470;2022-09-28T06:22:19;92175.41;;;15.78;100.00
6038;BME280;3047;42.600;23.470;2022-09-28T06:24:47;92172.88;;;15.78;100.00
6038;BME280;3047;42.600;23.470;2022-09-28T06:27:14;92168.41;;;15.82;100.00
6038;BME280;3047;42.600;23.470;2022-09-28T06:29:41;92171.94;;;15.79;100.00
6038;BME280;3047;42.600;23.470;2022-09-28T06:32:07;92172.69;;;15.81;100.00
6038;BME280;3047;42.600;23.470;2022-09-28T06:34:34;92164.22;;;15.81;100.00
6038;BME280;3047;42.600;23.470;2022-09-28T06:37:01;92181.88;;;15.84;100.00
6038;BME280;3047;42.600;23.470;2022-09-28T06:39:28;92197.75;;;15.88;100.00
6038;BME280;3047;42.600;23.470;2022-09-28T06:41:57;92199.78;;;15.82;100.00
6038;BME280;3047;42.600;23.470;2022-09-28T06:44:27;92212.78;;;15.78;100.00
6038;BME280;3047;42.600;23.470;2022-09-28T06:46:54;92208.34;;;15.81;100.00
6038;BME280;3047;42.600;23.470;2022-09-28T06:49:21;92187.16;;;15.81;100.00
6038;BME280;3047;42.600;23.470;2022-09-28T06:51:49;92204.81;;;15.97;100.00
6038;BME280;3047;42.600;23.470;2022-09-28T06:54:16;92199.09;;;15.93;100.00
6038;BME280;3047;42.600;23.470;2022-09-28T06:56:42;92204.09;;;15.95;100.00
6038;BME280;3047;42.600;23.470;2022-09-28T06:59:11;92201.34;;;15.98;100.00
6038;BME280;3047;42.600;23.470;2022-09-28T07:01:37;92193.19;;;15.93;100.00
6038;BME280;3047;42.600;23.470;2022-09-28T07:04:04;92193.81;;;15.96;100.00
6038;BME280;3047;42.600;23.470;2022-09-28T07:06:31;92194.63;;;15.97;100.00
6038;BME280;3047;42.600;23.470;2022-09-28T07:08:57;92194.09;;;15.92;100.00
6038;BME280;3047;42.600;23.470;2022-09-28T07:11:27;92176.97;;;15.81;100.00
6038;BME280;3047;42.600;23.470;2022-09-28T07:13:54;92197.19;;;15.97;100.00
6038;BME280;3047;42.600;23.470;2022-09-28T07:16:22;92204.34;;;16.04;100.00
6038;BME280;3047;42.600;23.470;2022-09-28T07:18:48;92190.69;;;16.05;100.00
6038;BME280;3047;42.600;23.470;2022-09-28T07:21:15;92200.19;;;16.16;100.00
6038;BME280;3047;42.600;23.470;2022-09-28T07:23:42;92195.63;;;16.21;100.00
6038;BME280;3047;42.600;23.470;2022-09-28T07:26:09;92193.47;;;16.28;100.00
6038;BME280;3047;42.600;23.470;2022-09-28T07:28:35;92195.97;;;16.42;100.00
6038;BME280;3047;42.600;23.470;2022-09-28T07:31:05;92202.81;;;16.54;100.00
6038;BME280;3047;42.600;23.470;2022-09-28T07:33:35;92216.50;;;16.66;100.00
6038;BME280;3047;42.600;23.470;2022-09-28T07:36:02;92223.16;;;16.82;100.00
6038;BME280;3047;42.600;23.470;2022-09-28T07:38:31;92221.00;;;16.88;100.00
6038;BME280;3047;42.600;23.470;2022-09-28T07:40:57;92222.66;;;17.02;100.00
6038;BME280;3047;42.600;23.470;2022-09-28T07:43:45;92217.03;;;17.10;100.00
6038;BME280;3047;42.600;23.470;2022-09-28T07:46:12;92215.31;;;17.10;100.00
6038;BME280;3047;42.600;23.470;2022-09-28T07:48:42;92209.06;;;17.14;100.00
6038;BME280;3047;42.600;23.470;2022-09-28T07:51:10;92223.09;;;17.45;100.00
6038;BME280;3047;42.600;23.470;2022-09-28T07:53:37;92197.25;;;17.50;100.00
6038;BME280;3047;42.600;23.470;2022-09-28T07:56:04;92212.31;;;18.02;100.00
6038;BME280;3047;42.600;23.470;2022-09-28T07:58:32;92216.34;;;18.18;100.00
6038;BME280;3047;42.600;23.470;2022-09-28T08:01:02;92223.53;;;18.37;100.00
6038;BME280;3047;42.600;23.470;2022-09-28T08:03:29;92237.34;;;18.69;100.00
6038;BME280;3047;42.600;23.470;2022-09-28T08:05:58;92248.94;;;18.97;100.00
6038;BME280;3047;42.600;23.470;2022-09-28T08:08:25;92249.66;;;19.11;100.00
6038;BME280;3047;42.600;23.470;2022-09-28T08:10:54;92242.34;;;19.06;100.00
6038;BME280;3047;42.600;23.470;2022-09-28T08:13:21;92248.63;;;19.13;100.00
6038;BME280;3047;42.600;23.470;2022-09-28T08:15:50;92249.63;;;18.99;100.00
6038;BME280;3047;42.600;23.470;2022-09-28T08:18:17;92249.94;;;18.84;100.00
6038;BME280;3047;42.600;23.470;2022-09-28T08:20:44;92216.25;;;18.54;100.00
6038;BME280;3047;42.600;23.470;2022-09-28T08:23:29;92252.81;;;18.68;100.00
6038;BME280;3047;42.600;23.470;2022-09-28T08:25:55;92244.22;;;18.69;100.00
6038;BME280;3047;42.600;23.470;2022-09-28T08:28:23;92252.66;;;18.58;100.00
6038;BME280;3047;42.600;23.470;2022-09-28T08:30:50;92251.72;;;18.59;100.00
6038;BME280;3047;42.600;23.470;2022-09-28T08:33:17;92238.50;;;18.65;100.00
6038;BME280;3047;42.600;23.470;2022-09-28T08:35:46;92246.97;;;18.66;100.00
6038;BME280;3047;42.600;23.470;2022-09-28T08:38:12;92246.97;;;18.66;100.00
6038;BME280;3047;42.600;23.470;2022-09-28T08:40:49;92235.81;;;18.67;100.00
6038;BME280;3047;42.600;23.470;2022-09-28T08:43:35;92236.97;;;18.63;100.00
6038;BME280;3047;42.600;23.470;2022-09-28T08:46:08;92230.91;;;18.52;100.00
6038;BME280;3047;42.600;23.470;2022-09-28T08:48:48;92213.72;;;18.31;100.00
6038;BME280;3047;42.600;23.470;2022-09-28T08:51:21;92238.66;;;18.40;100.00
6038;BME280;3047;42.600;23.470;2022-09-28T08:53:54;92235.50;;;18.36;100.00
6038;BME280;3047;42.600;23.470;2022-09-28T08:56:28;92241.53;;;18.35;100.00
6038;BME280;3047;42.600;23.470;2022-09-28T08:59:00;92221.19;;;18.34;100.00
6038;BME280;3047;42.600;23.470;2022-09-28T09:01:32;92229.03;;;18.43;100.00
6038;BME280;3047;42.600;23.470;2022-09-28T09:04:02;92168.16;;;18.24;100.00
6038;BME280;3047;42.600;23.470;2022-09-28T09:06:38;92225.31;;;18.59;100.00
6038;BME280;3047;42.600;23.470;2022-09-28T09:09:14;92206.69;;;18.45;100.00
6038;BME280;3047;42.600;23.470;2022-09-28T09:11:52;92214.25;;;18.47;100.00
6038;BME280;3047;42.600;23.470;2022-09-28T09:14:50;92206.44;;;18.37;100.00
6038;BME280;3047;42.600;23.470;2022-09-28T09:17:25;92217.78;;;18.57;100.00
6038;BME280;3047;42.600;23.470;2022-09-28T09:20:05;92214.66;;;18.65;100.00
6038;BME280;3047;42.600;23.470;2022-09-28T09:22:38;92214.59;;;18.77;100.00
6038;BME280;3047;42.600;23.470;2022-09-28T09:25:18;92217.53;;;18.84;100.00
6038;BME280;3047;42.600;23.470;2022-09-28T09:28:01;92223.56;;;18.83;100.00
6038;BME280;3047;42.600;23.470;2022-09-28T09:30:41;92214.84;;;18.86;100.00
6038;BME280;3047;42.600;23.470;2022-09-28T09:36:13;92211.75;;;19.05;100.00
6038;BME280;3047;42.600;23.470;2022-09-28T09:38:54;92225.00;;;19.10;100.00
6038;BME280;3047;42.600;23.470;2022-09-28T09:41:34;92191.50;;;19.01;100.00
6038;BME280;3047;42.600;23.470;2022-09-28T09:44:24;92210.00;;;19.39;100.00
6038;BME280;3047;42.600;23.470;2022-09-28T09:47:00;92208.47;;;19.36;100.00
6038;BME280;3047;42.600;23.470;2022-09-28T09:49:34;92186.63;;;19.21;100.00
6038;BME280;3047;42.600;23.470;2022-09-28T09:52:08;92197.06;;;19.51;100.00
6038;BME280;3047;42.600;23.470;2022-09-28T09:54:39;92210.44;;;19.55;100.00
6038;BME280;3047;42.600;23.470;2022-09-28T09:57:12;92190.53;;;19.59;92.27
6038;BME280;3047;42.600;23.470;2022-09-28T09:59:43;92210.84;;;20.05;96.57
6038;BME280;3047;42.600;23.470;2022-09-28T10:02:22;92204.88;;;20.16;91.58
6038;BME280;3047;42.600;23.470;2022-09-28T10:04:52;92169.38;;;20.00;80.05
6038;BME280;3047;42.600;23.470;2022-09-28T10:07:22;92203.44;;;20.34;79.34
6038;BME280;3047;42.600;23.470;2022-09-28T10:09:54;92188.06;;;20.55;78.65
6038;BME280;3047;42.600;23.470;2022-09-28T10:12:23;92186.56;;;20.73;74.78
6038;BME280;3047;42.600;23.470;2022-09-28T10:14:51;92180.34;;;20.97;78.62
6038;BME280;3047;42.600;23.470;2022-09-28T10:17:19;92185.22;;;21.31;71.81
6038;BME280;3047;42.600;23.470;2022-09-28T10:19:51;92195.66;;;21.60;66.86
6038;BME280;3047;42.600;23.470;2022-09-28T10:22:23;92185.56;;;21.78;64.86
6038;BME280;3047;42.600;23.470;2022-09-28T10:24:52;92177.34;;;21.84;67.52
6038;BME280;3047;42.600;23.470;2022-09-28T10:27:23;92176.13;;;22.07;64.08
6038;BME280;3047;42.600;23.470;2022-09-28T10:29:53;92169.41;;;22.16;70.44
6038;BME280;3047;42.600;23.470;2022-09-28T10:32:22;92185.13;;;22.23;63.58
6038;BME280;3047;42.600;23.470;2022-09-28T10:34:50;92156.81;;;22.13;63.75
6038;BME280;3047;42.600;23.470;2022-09-28T10:37:19;92169.41;;;22.16;67.75
6038;BME280;3047;42.600;23.470;2022-09-28T10:39:50;92137.56;;;22.07;68.83
6038;BME280;3047;42.600;23.470;2022-09-28T10:42:20;92139.06;;;22.19;64.56
6038;BME280;3047;42.600;23.470;2022-09-28T10:44:51;92131.22;;;22.31;65.85
6038;BME280;3047;42.600;23.470;2022-09-28T10:47:21;92159.38;;;22.61;73.05
6038;BME280;3047;42.600;23.470;2022-09-28T10:49:49;92141.78;;;22.37;76.68
6038;BME280;3047;42.600;23.470;2022-09-28T10:52:36;92135.41;;;22.51;77.39
6038;BME280;3047;42.600;23.470;2022-09-28T10:55:23;92143.25;;;22.59;73.33
6038;BME280;3047;42.600;23.470;2022-09-28T10:57:50;92120.34;;;22.56;74.21
6038;BME280;3047;42.600;23.470;2022-09-28T11:00:31;92143.19;;;22.88;74.99
6038;BME280;3047;42.600;23.470;2022-09-28T11:02:59;92124.59;;;23.04;75.16
6038;BME280;3047;42.600;23.470;2022-09-28T11:05:27;92109.16;;;23.04;69.33
6038;BME280;3047;42.600;23.470;2022-09-28T11:07:56;92074.75;;;22.95;68.15
6038;BME280;3047;42.600;23.470;2022-09-28T11:10:26;92133.66;;;23.45;69.48
6038;BME280;3047;42.600;23.470;2022-09-28T11:12:54;92131.81;;;23.65;66.57
6038;BME280;3047;42.600;23.470;2022-09-28T11:15:25;92131.91;;;23.74;62.22
6038;BME280;3047;42.600;23.470;2022-09-28T11:17:54;92120.41;;;23.86;66.93
6038;BME280;3047;42.600;23.470;2022-09-28T11:20:33;92127.59;;;23.92;58.80
6038;BME280;3047;42.600;23.470;2022-09-28T11:23:17;92126.91;;;23.90;59.16
6038;BME280;3047;42.600;23.470;2022-09-28T11:25:55;92126.06;;;23.99;60.44
6038;BME280;3047;42.600;23.470;2022-09-28T11:28:28;92112.50;;;24.15;65.36
6038;BME280;3047;42.600;23.470;2022-09-28T11:30:57;92088.81;;;24.20;66.06
6038;BME280;3047;42.600;23.470;2022-09-28T11:33:28;92114.56;;;24.47;58.53
6038;BME280;3047;42.600;23.470;2022-09-28T11:36:04;92104.78;;;24.59;63.33
6038;BME280;3047;42.600;23.470;2022-09-28T11:38:39;92093.34;;;24.61;62.87
6038;BME280;3047;42.600;23.470;2022-09-28T11:41:24;92106.56;;;24.58;57.79
6038;BME280;3047;42.600;23.470;2022-09-28T11:44:14;92120.38;;;24.75;58.81
6038;BME280;3047;42.600;23.470;2022-09-28T11:46:50;92112.75;;;24.65;55.51
6038;BME280;3047;42.600;23.470;2022-09-28T11:49:30;92115.38;;;24.48;54.12
6038;BME280;3047;42.600;23.470;2022-09-28T11:52:02;92111.38;;;24.35;60.21
6038;BME280;3047;42.600;23.470;2022-09-28T11:54:37;92108.41;;;24.30;59.49
6038;BME280;3047;42.600;23.470;2022-09-28T11:57:12;92117.56;;;24.42;60.71
6038;BME280;3047;42.600;23.470;2022-09-28T11:59:49;92119.72;;;24.47;60.68
6038;BME280;3047;42.600;23.470;2022-09-28T12:02:22;92118.66;;;24.58;55.10
6038;BME280;3047;42.600;23.470;2022-09-28T12:04:55;92122.56;;;24.62;63.82
6038;BME280;3047;42.600;23.470;2022-09-28T12:07:27;92116.41;;;24.63;61.59
6038;BME280;3047;42.600;23.470;2022-09-28T12:09:58;92105.09;;;24.56;56.08
6038;BME280;3047;42.600;23.470;2022-09-28T12:12:30;92105.75;;;24.58;59.84
6038;BME280;3047;42.600;23.470;2022-09-28T12:15:02;92075.16;;;24.45;57.24
6038;BME280;3047;42.600;23.470;2022-09-28T12:17:33;92092.03;;;24.57;56.97
6038;BME280;3047;42.600;23.470;2022-09-28T12:20:10;92096.94;;;24.69;61.38
6038;BME280;3047;42.600;23.470;2022-09-28T12:22:44;92098.06;;;24.66;54.96
6038;BME280;3047;42.600;23.470;2022-09-28T12:25:15;92091.63;;;24.70;57.23
6038;BME280;3047;42.600;23.470;2022-09-28T12:27:49;92103.22;;;24.66;53.89
6038;BME280;3047;42.600;23.470;2022-09-28T12:30:19;92103.31;;;24.56;54.70
6038;BME280;3047;42.600;23.470;2022-09-28T12:32:49;92082.53;;;24.22;55.51
6038;BME280;3047;42.600;23.470;2022-09-28T12:35:38;92091.13;;;24.23;60.39
6038;BME280;3047;42.600;23.470;2022-09-28T12:38:32;92106.06;;;24.01;59.78
6038;BME280;3047;42.600;23.470;2022-09-28T12:41:08;92104.72;;;23.97;60.78
6038;BME280;3047;42.600;23.470;2022-09-28T12:44:09;92098.03;;;23.86;63.16
6038;BME280;3047;42.600;23.470;2022-09-28T12:46:48;92095.72;;;23.65;62.00
6038;BME280;3047;42.600;23.470;2022-09-28T12:49:28;92097.44;;;23.47;57.35
6038;BME280;3047;42.600;23.470;2022-09-28T12:52:07;92105.88;;;23.39;60.83
6038;BME280;3047;42.600;23.470;2022-09-28T12:57:44;92104.34;;;23.19;59.40
6038;BME280;3047;42.600;23.470;2022-09-28T13:00:16;92103.06;;;23.05;61.80
6038;BME280;3047;42.600;23.470;2022-09-28T13:03:06;92094.00;;;22.91;61.74
6038;BME280;3047;42.600;23.470;2022-09-28T13:05:49;92109.59;;;22.80;64.09
6038;BME280;3047;42.600;23.470;2022-09-28T13:08:25;92109.78;;;22.69;62.59
6038;BME280;3047;42.600;23.470;2022-09-28T13:11:04;92098.72;;;22.49;65.16
6038;BME280;3047;42.600;23.470;2022-09-28T13:13:42;92116.56;;;22.60;66.89
6038;BME280;3047;42.600;23.470;2022-09-28T13:16:17;92115.50;;;22.53;64.12
6038;BME280;3047;42.600;23.470;2022-09-28T13:18:52;92115.22;;;22.46;68.13
6038;BME280;3047;42.600;23.470;2022-09-28T13:21:28;92120.00;;;22.41;67.40
6038;BME280;3047;42.600;23.470;2022-09-28T13:24:02;92121.75;;;22.41;69.93
6038;BME280;3047;42.600;23.470;2022-09-28T13:26:33;92118.91;;;22.34;64.00
6038;BME280;3047;42.600;23.470;2022-09-28T13:29:04;92097.38;;;22.16;66.08